createdAt,value
2016-12-06T00:00:21.876Z,76.26
2016-12-06T00:00:52.392Z,76.07
2016-12-06T00:01:22.188Z,75.69
2016-12-06T00:01:50.048Z,75.31
2016-12-06T00:02:18.121Z,75.88
2016-12-06T00:02:46.463Z,76.46
2016-12-06T00:03:14.585Z,74.92
2016-12-06T00:03:42.328Z,74.73
2016-12-06T00:04:10.021Z,74.44
2016-12-06T00:04:37.928Z,75.11
2016-12-06T00:05:06.205Z,74.82
2016-12-06T00:05:35.081Z,74.54
2016-12-06T00:06:03.775Z,74.54
2016-12-06T00:06:31.908Z,73.96
2016-12-06T00:07:00.024Z,73.28
2016-12-06T00:07:28.154Z,74.34
2016-12-06T00:07:56.287Z,74.05
2016-12-06T00:08:24.454Z,74.25
2016-12-06T00:08:52.570Z,73.96
2016-12-06T00:09:20.744Z,73.47
2016-12-06T00:09:48.906Z,74.54
2016-12-06T00:10:17.124Z,74.34
2016-12-06T00:10:45.268Z,73.47
2016-12-06T00:11:13.048Z,72.42
2016-12-06T00:11:41.080Z,71.17
2016-12-06T00:12:15.370Z,72.52
2016-12-06T00:12:45.215Z,72.13
2016-12-06T00:13:15.118Z,72.23
2016-12-06T00:13:42.937Z,72.23
2016-12-06T00:14:11.089Z,73.47
2016-12-06T00:14:39.283Z,73.96
2016-12-06T00:15:07.048Z,73.77
2016-12-06T00:15:34.845Z,73
2016-12-06T00:16:02.961Z,73.09
2016-12-06T00:16:30.845Z,72.32
2016-12-06T00:16:58.677Z,72.32
2016-12-06T00:17:26.494Z,71.75
2016-12-06T00:17:54.270Z,71.36
2016-12-06T00:18:22.407Z,71.17
2016-12-06T00:18:50.162Z,71.84
2016-12-06T00:19:18.338Z,70.88
2016-12-06T00:19:46.422Z,70.3
2016-12-06T00:20:14.218Z,71.08
2016-12-06T00:20:42.351Z,71.84
2016-12-06T00:21:10.169Z,72.03
2016-12-06T00:21:37.900Z,71.65
2016-12-06T00:22:05.657Z,71.94
2016-12-06T00:22:33.814Z,72.13
2016-12-06T00:23:01.852Z,73.38
2016-12-06T00:23:29.681Z,72.32
2016-12-06T00:23:57.772Z,71.84
2016-12-06T00:24:26.022Z,71.84
2016-12-06T00:24:54.132Z,72.32
2016-12-06T00:25:21.996Z,71.65
2016-12-06T00:25:49.816Z,70.78
2016-12-06T00:26:17.960Z,71.94
2016-12-06T00:26:45.765Z,71.84
2016-12-06T00:27:13.614Z,72.13
2016-12-06T00:27:41.448Z,72.71
2016-12-06T00:28:09.266Z,72.32
2016-12-06T00:28:37.778Z,72.52
2016-12-06T00:29:05.533Z,72.03
2016-12-06T00:29:33.379Z,71.94
2016-12-06T00:30:01.204Z,71.75
2016-12-06T00:30:28.956Z,71.75
2016-12-06T00:30:57.062Z,71.75
2016-12-06T00:31:24.953Z,71.75
2016-12-06T00:31:53.172Z,70.88
2016-12-06T00:32:20.904Z,71.36
2016-12-06T00:32:49.372Z,71.26
2016-12-06T00:33:17.903Z,71.17
2016-12-06T00:33:45.940Z,71.55
2016-12-06T00:34:14.139Z,72.03
2016-12-06T00:34:42.646Z,72.03
2016-12-06T00:35:10.829Z,71.36
2016-12-06T00:35:38.648Z,71.65
2016-12-06T00:36:07.295Z,71.75
2016-12-06T00:36:35.138Z,71.65
2016-12-06T00:37:03.192Z,71.75
2016-12-06T00:37:31.283Z,70.88
2016-12-06T00:37:59.686Z,70.78
2016-12-06T00:38:27.799Z,70.01
2016-12-06T00:38:55.617Z,70.3
2016-12-06T00:39:23.444Z,71.17
2016-12-06T00:39:51.469Z,71.46
2016-12-06T00:40:19.908Z,71.17
2016-12-06T00:40:47.802Z,71.08
2016-12-06T00:41:15.869Z,71.65
2016-12-06T00:41:43.695Z,71.26
2016-12-06T00:42:11.936Z,71.26
2016-12-06T00:42:40.018Z,70.98
2016-12-06T00:43:08.017Z,70.88
2016-12-06T00:43:35.957Z,71.46
2016-12-06T00:44:03.787Z,72.23
2016-12-06T00:44:31.883Z,70.59
2016-12-06T00:44:59.724Z,71.08
2016-12-06T00:45:27.464Z,70.98
2016-12-06T00:45:55.978Z,70.21
2016-12-06T00:46:24.112Z,70.17
2016-12-06T00:46:51.897Z,70.94
2016-12-06T00:47:19.681Z,71.33
2016-12-06T00:47:47.510Z,71.91
2016-12-06T00:48:15.389Z,71.71
2016-12-06T00:48:43.153Z,71.91
2016-12-06T00:49:10.990Z,72.19
2016-12-06T00:49:38.812Z,70.94
2016-12-06T00:50:06.613Z,70.37
2016-12-06T00:50:34.757Z,70.84
2016-12-06T00:51:02.510Z,71.33
2016-12-06T00:51:30.283Z,72
2016-12-06T00:51:58.408Z,72.19
2016-12-06T00:52:26.513Z,71.14
2016-12-06T00:52:54.319Z,71.14
2016-12-06T00:53:22.430Z,70.27
2016-12-06T00:53:50.553Z,71.23
2016-12-06T00:54:18.438Z,72
2016-12-06T00:54:46.196Z,71.61
2016-12-06T00:55:14.353Z,71.04
2016-12-06T00:55:42.161Z,71.42
2016-12-06T00:56:10.014Z,71.81
2016-12-06T00:56:37.804Z,71.48
2016-12-06T00:57:05.573Z,71.87
2016-12-06T00:57:33.380Z,71.33
2016-12-06T00:58:01.338Z,71.58
2016-12-06T00:58:29.125Z,71.87
2016-12-06T00:58:56.850Z,71.29
2016-12-06T00:59:24.575Z,71.87
2016-12-06T00:59:52.694Z,72.34
2016-12-06T01:00:20.779Z,71.96
2016-12-06T01:00:49.281Z,71.77
2016-12-06T01:01:17.058Z,70.52
2016-12-06T01:01:44.893Z,70.81
2016-12-06T01:02:12.689Z,71.67
2016-12-06T01:02:40.493Z,72.25
2016-12-06T01:03:08.948Z,72.16
2016-12-06T01:03:36.820Z,71.96
2016-12-06T01:04:04.643Z,71.67
2016-12-06T01:04:33.126Z,72.06
2016-12-06T01:05:00.960Z,72.44
2016-12-06T01:05:28.727Z,72.16
2016-12-06T01:05:56.650Z,73.02
2016-12-06T01:06:24.527Z,73.11
2016-12-06T01:06:52.365Z,72.25
2016-12-06T01:07:20.388Z,72.25
2016-12-06T01:07:48.188Z,72.64
2016-12-06T01:08:16.151Z,72.25
2016-12-06T01:08:44.620Z,71.87
2016-12-06T01:09:12.768Z,71.67
2016-12-06T01:09:40.687Z,71.39
2016-12-06T01:10:08.549Z,71.58
2016-12-06T01:10:36.341Z,72.16
2016-12-06T01:11:04.226Z,72.44
2016-12-06T01:11:32.028Z,72.83
2016-12-06T01:12:00.203Z,72.34
2016-12-06T01:12:28.001Z,71.87
2016-12-06T01:12:56.123Z,71.77
2016-12-06T01:13:23.989Z,71.77
2016-12-06T01:13:52.178Z,71.39
2016-12-06T01:14:20.369Z,71.58
2016-12-06T01:14:48.168Z,71.77
2016-12-06T01:15:15.908Z,72.06
2016-12-06T01:15:43.712Z,72.54
2016-12-06T01:16:12.145Z,72.83
2016-12-06T01:16:40.196Z,73.41
2016-12-06T01:17:08.349Z,73.69
2016-12-06T01:17:36.141Z,73.98
2016-12-06T01:18:03.932Z,73.69
2016-12-06T01:18:31.737Z,73.41
2016-12-06T01:18:59.657Z,73.02
2016-12-06T01:19:27.778Z,73.31
2016-12-06T01:19:55.923Z,73.79
2016-12-06T01:20:24.060Z,73.79
2016-12-06T01:20:51.890Z,73.69
2016-12-06T01:21:19.713Z,73.88
2016-12-06T01:21:47.864Z,73.69
2016-12-06T01:22:15.714Z,73.98
2016-12-06T01:22:43.579Z,72.83
2016-12-06T01:23:11.637Z,73.31
2016-12-06T01:23:39.386Z,73.79
2016-12-06T01:24:07.141Z,73.6
2016-12-06T01:24:35.537Z,73.5
2016-12-06T01:25:03.345Z,73.79
2016-12-06T01:25:31.067Z,73.6
2016-12-06T01:25:59.190Z,73.11
2016-12-06T01:26:27.385Z,73.6
2016-12-06T01:26:55.144Z,72.34
2016-12-06T01:27:23.275Z,73.5
2016-12-06T01:27:51.142Z,73.6
2016-12-06T01:28:19.457Z,73.11
2016-12-06T01:28:47.721Z,73.6
2016-12-06T01:29:15.558Z,73.31
2016-12-06T01:29:43.688Z,73.21
2016-12-06T01:30:11.753Z,73.21
2016-12-06T01:30:39.547Z,73.5
2016-12-06T01:31:07.361Z,73.5
2016-12-06T01:31:35.186Z,73.88
2016-12-06T01:32:02.990Z,73.41
2016-12-06T01:32:31.121Z,73.41
2016-12-06T01:32:58.884Z,72.34
2016-12-06T01:33:26.881Z,72.64
2016-12-06T01:33:55.022Z,73.5
2016-12-06T01:34:22.869Z,72.92
2016-12-06T01:34:50.699Z,73.02
2016-12-06T01:35:19.400Z,72.83
2016-12-06T01:35:47.548Z,72.92
2016-12-06T01:36:15.292Z,72.83
2016-12-06T01:36:43.203Z,72.34
2016-12-06T01:37:10.987Z,72.16
2016-12-06T01:37:38.960Z,72.25
2016-12-06T01:38:06.732Z,72.16
2016-12-06T01:38:34.662Z,72.06
2016-12-06T01:39:02.798Z,72.38
2016-12-06T01:39:30.617Z,72.34
2016-12-06T01:39:58.455Z,72.19
2016-12-06T01:40:26.313Z,72.73
2016-12-06T01:40:54.163Z,72.25
2016-12-06T01:41:22.001Z,72.09
2016-12-06T01:41:49.801Z,71.96
2016-12-06T01:42:18.820Z,71.91
2016-12-06T01:42:47.234Z,71.77
2016-12-06T01:43:14.993Z,71.87
2016-12-06T01:43:42.787Z,72.34
2016-12-06T01:44:10.575Z,72.54
2016-12-06T01:44:38.630Z,72.73
2016-12-06T01:45:06.476Z,72.92
2016-12-06T01:45:34.319Z,72.83
2016-12-06T01:46:02.527Z,72.44
2016-12-06T01:46:30.692Z,73.02
2016-12-06T01:46:58.760Z,71.96
2016-12-06T01:47:26.548Z,71.96
2016-12-06T01:47:54.712Z,72.16
2016-12-06T01:48:22.591Z,72.06
2016-12-06T01:48:51.135Z,72.73
2016-12-06T01:49:18.911Z,72.73
2016-12-06T01:49:47.107Z,72.92
2016-12-06T01:50:15.196Z,73.02
2016-12-06T01:50:43.300Z,73.79
2016-12-06T01:51:11.128Z,73.5
2016-12-06T01:51:39.236Z,73.41
2016-12-06T01:52:07.061Z,73.98
2016-12-06T01:52:34.865Z,73.41
2016-12-06T01:53:02.937Z,73.56
2016-12-06T01:53:31.126Z,74.37
2016-12-06T01:53:59.262Z,74.17
2016-12-06T01:54:27.170Z,74.08
2016-12-06T01:54:55.020Z,73.6
2016-12-06T01:55:23.421Z,73.66
2016-12-06T01:55:51.247Z,74.23
2016-12-06T01:56:19.397Z,74.04
2016-12-06T01:56:47.602Z,74.08
2016-12-06T01:57:15.397Z,73.6
2016-12-06T01:57:43.223Z,73.5
2016-12-06T01:58:10.993Z,73.69
2016-12-06T01:58:38.845Z,73.85
2016-12-06T01:59:06.744Z,73.31
2016-12-06T01:59:34.594Z,73.08
2016-12-06T02:00:02.455Z,73.41
2016-12-06T02:00:30.238Z,73.5
2016-12-06T02:00:58.075Z,73.69
2016-12-06T02:01:25.833Z,73.5
2016-12-06T02:01:53.697Z,73.56
2016-12-06T02:02:21.751Z,73.56
2016-12-06T02:02:49.594Z,73.75
2016-12-06T02:03:17.400Z,74.46
2016-12-06T02:03:45.209Z,74.33
2016-12-06T02:04:13.319Z,74.27
2016-12-06T02:04:41.062Z,73.85
2016-12-06T02:05:08.842Z,73.66
2016-12-06T02:05:36.603Z,73.98
2016-12-06T02:06:04.740Z,73.94
2016-12-06T02:06:32.836Z,73.69
2016-12-06T02:07:00.614Z,73.94
2016-12-06T02:07:28.713Z,74.04
2016-12-06T02:07:56.821Z,74.04
2016-12-06T02:08:25.312Z,74.43
2016-12-06T02:08:53.403Z,74.62
2016-12-06T02:09:21.251Z,74.81
2016-12-06T02:09:49.196Z,75.1
2016-12-06T02:10:17.082Z,74.9
2016-12-06T02:10:44.983Z,74.43
2016-12-06T02:11:13.205Z,74.71
2016-12-06T02:11:41.028Z,74.43
2016-12-06T02:12:08.898Z,74.23
2016-12-06T02:12:37.071Z,74.81
2016-12-06T02:13:04.913Z,74.81
2016-12-06T02:13:32.661Z,73.94
2016-12-06T02:14:00.728Z,74.33
2016-12-06T02:14:28.641Z,74.23
2016-12-06T02:14:56.503Z,74.33
2016-12-06T02:15:24.679Z,74.62
2016-12-06T02:15:52.794Z,74.13
2016-12-06T02:16:21.238Z,74.9
2016-12-06T02:16:49.447Z,75.1
2016-12-06T02:17:17.285Z,75.1
2016-12-06T02:17:45.021Z,74.9
2016-12-06T02:18:12.824Z,75
2016-12-06T02:18:41.031Z,75.48
2016-12-06T02:19:09.033Z,75
2016-12-06T02:19:36.866Z,75
2016-12-06T02:20:04.752Z,75.1
2016-12-06T02:20:32.590Z,74.62
2016-12-06T02:21:00.405Z,74.71
2016-12-06T02:21:28.635Z,75.1
2016-12-06T02:21:56.434Z,75.57
2016-12-06T02:22:24.949Z,75.87
2016-12-06T02:22:52.740Z,75.67
2016-12-06T02:23:20.686Z,75.38
2016-12-06T02:23:48.494Z,75.1
2016-12-06T02:24:16.657Z,74.71
2016-12-06T02:24:44.523Z,75.38
2016-12-06T02:25:12.359Z,75.57
2016-12-06T02:25:40.537Z,75.87
2016-12-06T02:26:08.627Z,75.29
2016-12-06T02:26:36.456Z,74.81
2016-12-06T02:27:04.301Z,74.71
2016-12-06T02:27:32.108Z,75
2016-12-06T02:27:59.962Z,75.48
2016-12-06T02:28:27.741Z,75.57
2016-12-06T02:28:55.761Z,75.29
2016-12-06T02:29:23.938Z,75.57
2016-12-06T02:29:52.071Z,75.96
2016-12-06T02:30:19.914Z,75.48
2016-12-06T02:30:48.083Z,74.71
2016-12-06T02:31:16.233Z,74.43
2016-12-06T02:31:44.022Z,74.81
2016-12-06T02:32:12.180Z,75.38
2016-12-06T02:32:39.910Z,75.67
2016-12-06T02:33:07.755Z,76.15
2016-12-06T02:33:35.882Z,76.25
2016-12-06T02:34:03.906Z,75.96
2016-12-06T02:34:31.992Z,75.73
2016-12-06T02:34:59.788Z,76.21
2016-12-06T02:35:27.581Z,76.12
2016-12-06T02:35:55.606Z,75.48
2016-12-06T02:36:23.420Z,75.54
2016-12-06T02:36:51.852Z,75.67
2016-12-06T02:37:20.535Z,75.67
2016-12-06T02:37:48.376Z,75.77
2016-12-06T02:38:16.214Z,75.29
2016-12-06T02:38:44.002Z,75.38
2016-12-06T02:39:11.859Z,75.77
2016-12-06T02:39:40.343Z,75.87
2016-12-06T02:40:08.181Z,75.67
2016-12-06T02:40:36.009Z,76.21
2016-12-06T02:41:04.142Z,75.92
2016-12-06T02:41:32.227Z,76.31
2016-12-06T02:42:00.331Z,76.12
2016-12-06T02:42:28.795Z,76.15
2016-12-06T02:42:56.604Z,76.06
2016-12-06T02:43:24.720Z,76.4
2016-12-06T02:43:52.812Z,76.31
2016-12-06T02:44:20.862Z,76.98
2016-12-06T02:44:48.657Z,76.59
2016-12-06T02:45:16.529Z,76.79
2016-12-06T02:45:44.658Z,76.79
2016-12-06T02:46:12.797Z,76.69
2016-12-06T02:46:40.864Z,77.26
2016-12-06T02:47:08.960Z,77.08
2016-12-06T02:47:36.734Z,76.79
2016-12-06T02:48:04.862Z,76.4
2016-12-06T02:48:32.674Z,76.59
2016-12-06T02:49:01.122Z,76.12
2016-12-06T02:49:29.602Z,76.12
2016-12-06T02:49:58.300Z,76.44
2016-12-06T02:50:26.936Z,76.25
2016-12-06T02:50:54.797Z,76.31
2016-12-06T02:51:22.652Z,76.79
2016-12-06T02:51:50.797Z,76.82
2016-12-06T02:52:18.647Z,77.11
2016-12-06T02:52:46.566Z,77.11
2016-12-06T02:53:14.691Z,77.21
2016-12-06T02:53:42.737Z,76.92
2016-12-06T02:54:10.559Z,77.01
2016-12-06T02:54:38.515Z,76.25
2016-12-06T02:55:06.686Z,75.87
2016-12-06T02:55:34.863Z,76.44
2016-12-06T02:56:02.717Z,76.06
2016-12-06T02:56:31.745Z,76.15
2016-12-06T02:56:59.845Z,76.25
2016-12-06T02:57:27.787Z,76.15
2016-12-06T02:57:55.601Z,75.96
2016-12-06T02:58:23.428Z,75.87
2016-12-06T02:58:51.228Z,76.06
2016-12-06T02:59:19.039Z,76.34
2016-12-06T02:59:47.124Z,76.25
2016-12-06T03:00:14.961Z,76.34
2016-12-06T03:00:43.036Z,76.15
2016-12-06T03:01:10.871Z,76.06
2016-12-06T03:01:38.718Z,76.44
2016-12-06T03:02:08.431Z,75.67
2016-12-06T03:02:36.562Z,75.57
2016-12-06T03:03:05.254Z,75.96
2016-12-06T03:03:33.086Z,75.96
2016-12-06T03:04:00.827Z,75.67
2016-12-06T03:04:28.733Z,75.77
2016-12-06T03:04:57.005Z,75.38
2016-12-06T03:05:24.837Z,75.87
2016-12-06T03:06:07.627Z,76.15
2016-12-06T03:06:35.670Z,76.54
2016-12-06T03:07:03.554Z,77.01
2016-12-06T03:07:31.491Z,77.21
2016-12-06T03:08:13.959Z,77.69
2016-12-06T03:08:41.801Z,77.59
2016-12-06T03:09:10.265Z,77.4
2016-12-06T03:11:40.817Z,77.56
2016-12-06T03:12:08.836Z,77.75
2016-12-06T03:12:36.658Z,77.56
2016-12-06T03:13:05.144Z,78.03
2016-12-06T03:13:33.301Z,78.03
2016-12-06T03:14:01.607Z,77.65
2016-12-06T03:14:29.523Z,77.65
2016-12-06T03:14:57.328Z,77.56
2016-12-06T03:15:25.133Z,77.94
2016-12-06T03:15:53.487Z,77.56
2016-12-06T03:16:21.342Z,77.46
2016-12-06T03:16:49.159Z,77.56
2016-12-06T03:17:17.276Z,78.42
2016-12-06T03:17:45.407Z,78.7
2016-12-06T03:18:13.919Z,77.65
2016-12-06T03:18:42.008Z,77.94
2016-12-06T03:19:09.901Z,77.26
2016-12-06T03:19:37.817Z,77.75
2016-12-06T03:20:05.685Z,78.03
2016-12-06T03:20:33.783Z,78.52
2016-12-06T03:21:01.841Z,78.8
2016-12-06T03:21:29.571Z,78.42
2016-12-06T03:21:57.819Z,78.7
2016-12-06T03:22:25.561Z,78.52
2016-12-06T03:22:53.314Z,79.38
2016-12-06T03:23:21.136Z,79.19
2016-12-06T03:23:48.856Z,78.32
2016-12-06T03:24:16.589Z,78.52
2016-12-06T03:24:45.289Z,78.8
2016-12-06T03:25:13.433Z,79.28
2016-12-06T03:25:41.272Z,78.9
2016-12-06T03:26:09.002Z,78.61
2016-12-06T03:26:36.954Z,79.19
2016-12-06T03:27:05.432Z,78.8
2016-12-06T03:27:33.934Z,79.67
2016-12-06T03:28:02.025Z,79.57
2016-12-06T03:28:44.404Z,79.57
2016-12-06T03:29:12.240Z,79.67
2016-12-06T03:29:40.487Z,79.47
2016-12-06T03:30:23.220Z,79.86
2016-12-06T03:30:51.667Z,79.47
2016-12-06T03:31:20.153Z,79.47
2016-12-06T03:31:48.826Z,79.47
2016-12-06T03:32:16.595Z,79.91
2016-12-06T03:32:44.427Z,80.49
2016-12-06T03:33:12.245Z,80.34
2016-12-06T03:33:40.386Z,80.24
2016-12-06T03:34:08.965Z,79.86
2016-12-06T03:34:37.003Z,79.82
2016-12-06T03:35:05.151Z,80.34
2016-12-06T03:35:33.213Z,80.53
2016-12-06T03:36:01.024Z,80.24
2016-12-06T03:36:29.128Z,80.4
2016-12-06T03:36:56.934Z,80.15
2016-12-06T03:37:24.748Z,80.4
2016-12-06T03:37:52.941Z,80.91
2016-12-06T03:38:20.735Z,80.68
2016-12-06T03:38:49.463Z,80.78
2016-12-06T03:39:17.589Z,80.49
2016-12-06T03:39:45.674Z,80.87
2016-12-06T03:40:13.780Z,80.97
2016-12-06T03:40:41.935Z,81.07
2016-12-06T03:41:10.474Z,80.68
2016-12-06T03:41:38.315Z,80.58
2016-12-06T03:42:06.218Z,80.68
2016-12-06T03:42:34.411Z,80.78
2016-12-06T03:43:02.542Z,80.87
2016-12-06T03:43:30.355Z,80.97
2016-12-06T03:43:58.216Z,81.45
2016-12-06T03:44:26.344Z,81.16
2016-12-06T03:44:54.120Z,81.45
2016-12-06T03:45:22.287Z,81.45
2016-12-06T03:45:50.204Z,81.45
2016-12-06T03:46:18.011Z,81.26
2016-12-06T03:46:46.106Z,80.87
2016-12-06T03:47:14.536Z,81.35
2016-12-06T03:47:42.349Z,80.97
2016-12-06T03:48:10.114Z,81.16
2016-12-06T03:48:37.963Z,81.45
2016-12-06T03:49:06.125Z,81.35
2016-12-06T03:49:33.921Z,81.54
2016-12-06T03:50:01.797Z,81.35
2016-12-06T03:50:29.930Z,81.16
2016-12-06T03:50:58.022Z,80.97
2016-12-06T03:51:26.052Z,81.07
2016-12-06T03:51:53.831Z,81.16
2016-12-06T03:52:22.484Z,81.45
2016-12-06T03:52:50.683Z,81.35
2016-12-06T03:53:19.390Z,81.16
2016-12-06T03:53:47.229Z,81.45
2016-12-06T03:54:15.357Z,81.35
2016-12-06T03:54:43.458Z,81.45
2016-12-06T03:55:11.327Z,81.45
2016-12-06T03:55:39.110Z,81.54
2016-12-06T03:56:07.524Z,81.16
2016-12-06T03:56:35.436Z,81.16
2016-12-06T03:57:03.199Z,81.35
2016-12-06T03:57:31.279Z,81.35
2016-12-06T03:57:59.392Z,81.64
2016-12-06T03:58:27.137Z,81.84
2016-12-06T03:58:55.078Z,81.45
2016-12-06T03:59:24.389Z,81.07
2016-12-06T03:59:52.420Z,81.26
2016-12-06T04:00:20.540Z,81.07
2016-12-06T04:00:48.702Z,80.97
2016-12-06T04:01:16.482Z,81.07
2016-12-06T04:01:44.611Z,81.35
2016-12-06T04:02:12.853Z,81.07
2016-12-06T04:02:41.019Z,81.16
2016-12-06T04:03:08.842Z,81.07
2016-12-06T04:03:37.203Z,81.26
2016-12-06T04:04:05.393Z,81.35
2016-12-06T04:04:33.239Z,81.26
2016-12-06T04:05:01.365Z,81.35
2016-12-06T04:05:30.212Z,81.84
2016-12-06T04:05:57.964Z,81.54
2016-12-06T04:06:26.966Z,81.93
2016-12-06T04:06:54.732Z,82.03
2016-12-06T04:07:23.046Z,82.6
2016-12-06T04:07:50.883Z,82.21
2016-12-06T04:08:18.978Z,81.93
2016-12-06T04:08:47.187Z,81.45
2016-12-06T04:09:14.993Z,81.64
2016-12-06T04:09:42.803Z,82.21
2016-12-06T04:10:11.037Z,82.03
2016-12-06T04:10:39.517Z,82.6
2016-12-06T04:11:07.344Z,82.21
2016-12-06T04:11:35.148Z,82.6
2016-12-06T04:12:02.976Z,82.51
2016-12-06T04:12:31.076Z,82.79
2016-12-06T04:12:59.168Z,82.6
2016-12-06T04:13:26.968Z,82.51
2016-12-06T04:13:54.816Z,82.79
2016-12-06T04:14:22.662Z,82.79
2016-12-06T04:14:50.429Z,83.18
2016-12-06T04:15:18.224Z,82.85
2016-12-06T04:15:46.048Z,82.89
2016-12-06T04:16:14.291Z,82.7
2016-12-06T04:16:42.111Z,82.85
2016-12-06T04:17:09.986Z,82.89
2016-12-06T04:17:37.965Z,82.7
2016-12-06T04:18:05.899Z,82.7
2016-12-06T04:18:33.761Z,82.79
2016-12-06T04:19:02.223Z,82.56
2016-12-06T04:19:30.282Z,82.94
2016-12-06T04:19:58.714Z,82.89
2016-12-06T04:20:26.539Z,82.79
2016-12-06T04:20:54.265Z,82.89
2016-12-06T04:21:22.140Z,82.89
2016-12-06T04:21:49.993Z,82.7
2016-12-06T04:22:17.843Z,83.18
2016-12-06T04:22:46.005Z,82.79
2016-12-06T04:23:13.791Z,82.79
2016-12-06T04:23:41.622Z,82.46
2016-12-06T04:24:09.385Z,82.7
2016-12-06T04:24:37.168Z,83.18
2016-12-06T04:25:05.003Z,83.37
2016-12-06T04:25:33.454Z,83.27
2016-12-06T04:26:01.548Z,82.79
2016-12-06T04:26:29.685Z,82.89
2016-12-06T04:26:57.561Z,83.08
2016-12-06T04:27:25.898Z,83.47
2016-12-06T04:27:53.683Z,83.85
2016-12-06T04:28:22.045Z,83.65
2016-12-06T04:28:50.151Z,83.61
2016-12-06T04:29:18.276Z,83.56
2016-12-06T04:29:46.052Z,83.42
2016-12-06T04:30:14.129Z,83.42
2016-12-06T04:30:42.263Z,83.56
2016-12-06T04:31:10.416Z,83.52
2016-12-06T04:31:38.494Z,83.91
2016-12-06T04:32:06.498Z,83.91
2016-12-06T04:32:34.386Z,83.61
2016-12-06T04:33:02.193Z,83.61
2016-12-06T04:33:29.982Z,83.65
2016-12-06T04:33:58.366Z,83.71
2016-12-06T04:34:26.493Z,84.09
2016-12-06T04:34:54.592Z,83.52
2016-12-06T04:35:22.397Z,83.91
2016-12-06T04:35:50.586Z,83.81
2016-12-06T04:36:18.693Z,83.81
2016-12-06T04:36:46.527Z,83.91
2016-12-06T04:37:14.298Z,83.71
2016-12-06T04:37:42.233Z,84.19
2016-12-06T04:38:10.678Z,83.71
2016-12-06T04:38:38.433Z,84
2016-12-06T04:39:06.761Z,84.38
2016-12-06T04:39:34.615Z,84
2016-12-06T04:40:02.480Z,83.71
2016-12-06T04:40:30.920Z,84.38
2016-12-06T04:40:59.096Z,84.48
2016-12-06T04:41:26.942Z,83.81
2016-12-06T04:41:54.850Z,84.19
2016-12-06T04:42:23.041Z,84.67
2016-12-06T04:42:50.894Z,83.75
2016-12-06T04:43:19.432Z,84.77
2016-12-06T04:43:47.262Z,84.38
2016-12-06T04:44:15.460Z,84.67
2016-12-06T04:44:43.610Z,84.58
2016-12-06T04:45:11.745Z,84.28
2016-12-06T04:45:39.574Z,84.28
2016-12-06T04:46:08.859Z,83.91
2016-12-06T04:46:37.369Z,84.38
2016-12-06T04:47:05.577Z,84.19
2016-12-06T04:47:33.624Z,84.58
2016-12-06T04:48:01.354Z,84.67
2016-12-06T04:48:29.462Z,84.48
2016-12-06T04:48:57.638Z,84.38
2016-12-06T04:49:25.417Z,84.38
2016-12-06T04:49:53.588Z,85.15
2016-12-06T04:50:21.413Z,85.05
2016-12-06T04:50:49.267Z,85.15
2016-12-06T04:51:17.657Z,85.15
2016-12-06T04:51:45.421Z,85.15
2016-12-06T04:52:13.266Z,84.95
2016-12-06T04:52:41.403Z,84.86
2016-12-06T04:53:09.227Z,85.25
2016-12-06T04:53:37.647Z,85.34
2016-12-06T04:54:05.439Z,84.86
2016-12-06T04:54:33.209Z,85.34
2016-12-06T04:55:01.336Z,84.86
2016-12-06T04:55:29.474Z,84.95
2016-12-06T04:55:57.664Z,85.63
2016-12-06T04:56:26.110Z,84.86
2016-12-06T04:56:54.304Z,84.95
2016-12-06T04:57:22.071Z,85.34
2016-12-06T04:57:50.310Z,85.44
2016-12-06T04:58:18.459Z,85.44
2016-12-06T04:58:46.300Z,85.72
2016-12-06T04:59:14.389Z,85.72
2016-12-06T04:59:42.474Z,85.53
2016-12-06T05:00:10.324Z,85.53
2016-12-06T05:00:38.152Z,85.72
2016-12-06T05:01:06.234Z,85.72
2016-12-06T05:01:34.015Z,85.82
2016-12-06T05:02:02.134Z,85.44
2016-12-06T05:02:29.988Z,85.72
2016-12-06T05:02:58.341Z,85.72
2016-12-06T05:03:26.182Z,85.82
2016-12-06T05:03:54.034Z,85.72
2016-12-06T05:04:22.133Z,85.92
2016-12-06T05:04:50.319Z,85.63
2016-12-06T05:05:18.397Z,85.92
2016-12-06T05:05:46.229Z,86.58
2016-12-06T05:06:14.622Z,86.78
2016-12-06T05:06:42.989Z,86.97
2016-12-06T05:07:10.827Z,86.35
2016-12-06T05:07:38.656Z,86.64
2016-12-06T05:08:06.795Z,86.74
2016-12-06T05:08:35.216Z,86.64
2016-12-06T05:09:03.351Z,86.74
2016-12-06T05:09:31.176Z,87.21
2016-12-06T05:09:58.955Z,86.74
2016-12-06T05:10:27.448Z,86.74
2016-12-06T05:10:55.296Z,86.74
2016-12-06T05:11:23.140Z,87.02
2016-12-06T05:11:50.967Z,87.21
2016-12-06T05:12:18.795Z,87.21
2016-12-06T05:12:46.556Z,87.12
2016-12-06T05:13:14.505Z,87.98
2016-12-06T05:13:42.213Z,87.31
2016-12-06T05:14:10.444Z,87.31
2016-12-06T05:14:38.312Z,87.31
2016-12-06T05:15:06.986Z,87.02
2016-12-06T05:15:35.156Z,87.12
2016-12-06T05:16:03.655Z,87.02
2016-12-06T05:16:31.797Z,87.5
2016-12-06T05:16:59.626Z,87.21
2016-12-06T05:17:27.726Z,87.21
2016-12-06T05:17:55.547Z,87.31
2016-12-06T05:18:23.738Z,86.88
2016-12-06T05:18:51.936Z,87.12
2016-12-06T05:19:19.729Z,86.45
2016-12-06T05:19:47.580Z,86.74
2016-12-06T05:20:15.447Z,86.64
2016-12-06T05:20:43.312Z,86.45
2016-12-06T05:21:11.192Z,86.74
2016-12-06T05:21:39.365Z,86.64
2016-12-06T05:22:07.835Z,86.93
2016-12-06T05:22:35.958Z,86.74
2016-12-06T05:23:04.110Z,86.83
2016-12-06T05:23:31.885Z,86.74
2016-12-06T05:23:59.671Z,86.45
2016-12-06T05:24:27.708Z,86.83
2016-12-06T05:24:55.929Z,86.93
2016-12-06T05:25:23.826Z,86.35
2016-12-06T05:25:51.620Z,86.35
2016-12-06T05:26:19.392Z,86.74
2016-12-06T05:26:47.427Z,87.12
2016-12-06T05:27:15.252Z,86.74
2016-12-06T05:27:43.401Z,86.35
2016-12-06T05:28:54.251Z,87.12
2016-12-06T05:29:22.435Z,87.5
2016-12-06T05:29:50.357Z,87.5
2016-12-06T05:30:18.511Z,86.83
2016-12-06T05:30:46.686Z,86.83
2016-12-06T05:31:14.494Z,86.25
2016-12-06T05:31:42.417Z,86.45
2016-12-06T05:32:10.227Z,86.64
2016-12-06T05:32:38.072Z,86.35
2016-12-06T05:33:06.316Z,86.07
2016-12-06T05:33:34.766Z,86.25
2016-12-06T05:34:02.606Z,85.68
2016-12-06T05:34:30.328Z,86.16
2016-12-06T05:34:58.429Z,85.88
2016-12-06T05:35:26.250Z,86.07
2016-12-06T05:35:54.401Z,85.88
2016-12-06T05:36:22.829Z,86.64
2016-12-06T05:36:50.652Z,86.35
2016-12-06T05:37:18.724Z,86.54
2016-12-06T05:37:46.528Z,86.54
2016-12-06T05:38:14.574Z,86.45
2016-12-06T05:38:42.400Z,86.35
2016-12-06T05:39:10.249Z,86.83
2016-12-06T05:39:38.123Z,86.64
2016-12-06T05:40:05.887Z,86.83
2016-12-06T05:40:34.024Z,86.45
2016-12-06T05:41:01.847Z,86.83
2016-12-06T05:41:29.763Z,86.74
2016-12-06T05:41:57.530Z,87.02
2016-12-06T05:42:25.301Z,87.12
2016-12-06T05:42:53.152Z,87.02
2016-12-06T05:43:21.017Z,87.02
2016-12-06T05:43:48.833Z,87.02
2016-12-06T05:44:17.121Z,87.21
2016-12-06T05:44:45.226Z,87.31
2016-12-06T05:45:13.294Z,86.93
2016-12-06T05:45:41.432Z,87.02
2016-12-06T05:46:09.259Z,87.21
2016-12-06T05:46:37.112Z,87.41
2016-12-06T05:47:04.936Z,87.88
2016-12-06T05:47:33.374Z,87.79
2016-12-06T05:48:01.473Z,87.98
2016-12-06T05:48:29.400Z,87.98
2016-12-06T05:48:57.506Z,87.98
2016-12-06T05:49:25.658Z,87.79
2016-12-06T05:49:53.441Z,87.88
2016-12-06T05:50:21.841Z,87.79
2016-12-06T05:50:49.625Z,88.08
2016-12-06T05:51:17.818Z,87.12
2016-12-06T05:51:45.664Z,87.88
2016-12-06T05:52:14.128Z,87.79
2016-12-06T05:52:42.318Z,87.79
2016-12-06T05:53:10.060Z,87.7
2016-12-06T05:53:37.900Z,87.7
2016-12-06T05:54:06.033Z,87.79
2016-12-06T05:54:34.507Z,87.6
2016-12-06T05:55:02.391Z,87.79
2016-12-06T05:55:30.345Z,87.79
2016-12-06T05:55:58.346Z,87.88
2016-12-06T05:56:26.512Z,87.88
2016-12-06T05:56:54.383Z,87.21
2016-12-06T05:57:22.538Z,87.5
2016-12-06T05:57:50.707Z,87.6
2016-12-06T05:58:19.290Z,87.02
2016-12-06T05:58:47.418Z,87.41
2016-12-06T05:59:15.516Z,87.21
2016-12-06T05:59:43.358Z,87.5
2016-12-06T06:00:11.435Z,87.31
2016-12-06T06:00:40.118Z,87.12
2016-12-06T06:01:07.937Z,87.41
2016-12-06T06:01:36.071Z,87.21
2016-12-06T06:02:03.869Z,87.21
2016-12-06T06:02:31.675Z,87.31
2016-12-06T06:02:59.443Z,87.21
2016-12-06T06:03:27.727Z,87.31
2016-12-06T06:03:55.571Z,87.21
2016-12-06T06:04:23.712Z,87.12
2016-12-06T06:04:51.770Z,87.31
2016-12-06T06:05:19.908Z,87.31
2016-12-06T06:05:47.978Z,87.21
2016-12-06T06:06:15.834Z,87.21